Terminal Aerodrome Forecast
Issued by NWS

Home | Current Version | Previous Version | Text Only | Print | Product List | Glossary On
Versions: 1 2 3 4 5 6 7 8 9 10 11 12 13 14 15 16 17 18 19 20 21 22 23 24 25 26 27 28 29 30 31 32 33 34 35 36 37 38 39 40 41 42
435
FTUS45 KCYS 280155 CCA
TAFLAR
TAF COR
KLAR 280155Z 2802/2824 19008KT P6SM -RA BKN025 OVC050
     FM280300 15008KT 6SM -SHRA OVC025
     FM280600 36005KT 3SM -RASN SCT007 OVC015
     FM280900 03007KT 2SM -SN SCT003 OVC007
     FM281200 03010KT 3/4SM -SN OVC003
     FM282100 02015G25KT 1/2SM -SN BLSN OVC003=

USA.gov is the U.S. government's official web portal to all federal, state and local government web resources and services.